createdAt,value
2023-05-14T00:03:50.861Z,62.19
2023-05-14T00:08:44.274Z,61.70
2023-05-14T00:13:37.807Z,61.82
2023-05-14T00:18:31.884Z,61.98
2023-05-14T00:23:25.693Z,61.94
2023-05-14T00:28:18.639Z,62.08
2023-05-14T00:33:11.395Z,61.98
2023-05-14T00:38:04.145Z,62.07
2023-05-14T00:42:58.483Z,61.59
2023-05-14T00:47:51.374Z,61.73
2023-05-14T00:52:45.517Z,61.78
2023-05-14T00:57:38.271Z,62.18
2023-05-14T01:02:32.072Z,62.02
2023-05-14T01:08:01.883Z,62.04
2023-05-14T01:13:21.184Z,61.90
2023-05-14T01:18:17.555Z,61.32
2023-05-14T01:23:10.685Z,61.47
2023-05-14T01:28:30.104Z,61.52
2023-05-14T01:33:26.871Z,61.83
2023-05-14T01:38:20.702Z,61.91
2023-05-14T01:43:15.962Z,61.62
2023-05-14T01:48:09.125Z,61.55
2023-05-14T01:53:02.496Z,62.26
2023-05-14T01:57:55.057Z,61.85
2023-05-14T02:02:46.829Z,61.81
2023-05-14T02:07:41.471Z,61.99
2023-05-14T02:12:34.928Z,61.50
2023-05-14T02:17:28.626Z,61.95
2023-05-14T02:22:21.317Z,62.10
2023-05-14T02:27:14.053Z,62.00
2023-05-14T02:32:09.239Z,62.06
2023-05-14T02:37:02.436Z,61.67
2023-05-14T02:41:57.940Z,61.52
2023-05-14T02:46:51.115Z,61.54
2023-05-14T02:51:44.961Z,61.82
2023-05-14T02:56:38.106Z,61.46
2023-05-14T03:01:30.874Z,61.31
2023-05-14T03:06:23.691Z,61.66
2023-05-14T03:11:16.724Z,61.98
2023-05-14T03:16:10.512Z,61.71
2023-05-14T03:21:05.663Z,61.96
2023-05-14T03:25:58.096Z,61.95
2023-05-14T03:30:51.841Z,62.26
2023-05-14T03:35:45.707Z,61.99
2023-05-14T03:40:38.428Z,61.88
2023-05-14T03:45:31.917Z,61.82
2023-05-14T03:50:26.116Z,61.95
2023-05-14T03:55:22.261Z,61.78
2023-05-14T04:00:16.097Z,61.75
2023-05-14T04:05:11.051Z,62.00
2023-05-14T04:10:04.763Z,61.82
2023-05-14T04:15:00.409Z,62.03
2023-05-14T04:19:53.769Z,61.95
2023-05-14T04:24:50.243Z,61.74
2023-05-14T04:29:42.998Z,61.77
2023-05-14T04:34:35.631Z,61.95
2023-05-14T04:39:27.828Z,61.90
2023-05-14T04:44:21.273Z,61.82
2023-05-14T04:49:15.126Z,61.96
2023-05-14T04:54:08.910Z,61.61
2023-05-14T04:59:01.448Z,61.83
2023-05-14T05:03:54.916Z,61.65
2023-05-14T05:08:47.566Z,61.52
2023-05-14T05:13:41.105Z,61.70
2023-05-14T05:18:33.818Z,61.57
2023-05-14T05:23:26.468Z,61.29
2023-05-14T05:28:20.368Z,61.77
2023-05-14T05:33:13.686Z,61.26
2023-05-14T05:38:06.648Z,61.62
2023-05-14T05:43:00.900Z,61.40
2023-05-14T05:47:55.016Z,60.94
2023-05-14T05:52:49.021Z,60.63
2023-05-14T05:57:43.313Z,60.86
2023-05-14T06:02:37.795Z,60.67
2023-05-14T06:07:31.635Z,61.46
2023-05-14T06:12:24.254Z,61.90
2023-05-14T06:17:16.574Z,61.46
2023-05-14T06:22:10.001Z,61.28
2023-05-14T06:27:04.312Z,60.95
2023-05-14T06:32:03.441Z,61.06
2023-05-14T06:36:56.153Z,61.16
2023-05-14T06:41:50.242Z,61.21
2023-05-14T06:46:44.785Z,60.95
2023-05-14T06:51:39.073Z,61.53
2023-05-14T06:56:32.616Z,61.10
2023-05-14T07:01:25.688Z,61.30
2023-05-14T07:06:18.548Z,61.33
2023-05-14T07:11:13.220Z,61.22
2023-05-14T07:16:11.970Z,61.25
2023-05-14T07:21:07.833Z,61.43
2023-05-14T07:26:01.761Z,61.50
2023-05-14T07:30:54.668Z,60.91
2023-05-14T07:35:48.717Z,61.38
2023-05-14T07:40:42.026Z,60.95
2023-05-14T07:45:34.991Z,60.68
2023-05-14T07:50:27.214Z,60.53
2023-05-14T07:55:21.921Z,60.17
2023-05-14T08:00:15.032Z,60.20
2023-05-14T08:05:10.032Z,59.99
2023-05-14T08:10:03.160Z,59.88
2023-05-14T08:14:56.705Z,59.81
2023-05-14T08:19:50.296Z,59.80
2023-05-14T08:24:43.867Z,59.56
2023-05-14T08:29:37.472Z,59.99
2023-05-14T08:34:31.368Z,60.16
2023-05-14T08:39:24.982Z,59.92
2023-05-14T08:44:26.410Z,59.61
2023-05-14T08:49:45.362Z,59.57
2023-05-14T08:54:38.549Z,59.54
2023-05-14T08:59:31.313Z,59.49
2023-05-14T09:04:25.166Z,59.58
2023-05-14T09:09:19.709Z,59.75
2023-05-14T09:14:12.993Z,60.00
2023-05-14T09:19:07.649Z,59.57
2023-05-14T09:24:00.320Z,59.26
2023-05-14T09:28:58.144Z,59.47
2023-05-14T09:33:54.080Z,58.94
2023-05-14T09:38:47.495Z,58.87
2023-05-14T09:43:40.114Z,57.99
2023-05-14T09:48:33.691Z,58.55
2023-05-14T09:53:26.867Z,58.55
2023-05-14T09:58:20.751Z,58.39
2023-05-14T10:03:17.997Z,57.97
2023-05-14T10:08:24.403Z,58.25
2023-05-14T10:13:24.874Z,57.87
2023-05-14T10:18:20.157Z,57.99
2023-05-14T10:23:13.978Z,58.00
2023-05-14T10:28:07.811Z,58.03
2023-05-14T10:33:13.882Z,57.96
2023-05-14T10:38:09.738Z,57.71
2023-05-14T10:43:04.899Z,57.72
2023-05-14T10:47:58.258Z,57.50
2023-05-14T10:52:51.787Z,57.82
2023-05-14T10:57:47.061Z,57.86
2023-05-14T11:02:40.856Z,57.70
2023-05-14T11:07:36.500Z,57.41
2023-05-14T11:12:29.140Z,57.45
2023-05-14T11:17:21.884Z,57.58
2023-05-14T11:22:15.392Z,57.28
2023-05-14T11:27:29.157Z,57.42
2023-05-14T11:32:22.943Z,57.13
2023-05-14T11:37:17.204Z,57.39
2023-05-14T11:42:13.038Z,57.07
2023-05-14T11:47:07.485Z,57.21
2023-05-14T11:52:02.638Z,57.29
2023-05-14T11:56:56.625Z,57.45
2023-05-14T12:01:50.818Z,57.35
2023-05-14T12:06:43.859Z,57.98
2023-05-14T12:11:37.827Z,58.71
2023-05-14T12:16:33.984Z,61.36
2023-05-14T12:21:30.629Z,61.95
2023-05-14T12:26:24.436Z,62.53
2023-05-14T12:31:18.266Z,63.07
2023-05-14T12:36:21.435Z,63.72
2023-05-14T12:41:15.520Z,63.59
2023-05-14T12:46:08.476Z,63.68
2023-05-14T12:51:01.331Z,63.05
2023-05-14T12:55:55.757Z,63.64
2023-05-14T13:00:49.027Z,63.53
2023-05-14T13:05:42.564Z,63.76
2023-05-14T13:10:35.127Z,63.41
2023-05-14T13:15:28.026Z,63.47
2023-05-14T13:20:20.390Z,63.35
2023-05-14T13:25:14.504Z,63.11
2023-05-14T13:30:10.807Z,63.61
2023-05-14T13:35:05.691Z,63.32
2023-05-14T13:39:58.286Z,63.63
2023-05-14T13:44:50.795Z,63.59
2023-05-14T13:49:44.279Z,62.42
2023-05-14T13:54:37.330Z,62.54
2023-05-14T13:59:29.795Z,62.64
2023-05-14T14:04:23.360Z,62.82
2023-05-14T14:09:16.792Z,63.01
2023-05-14T14:14:11.643Z,63.43
2023-05-14T14:19:06.021Z,63.20
2023-05-14T14:23:59.773Z,62.80
2023-05-14T14:28:53.253Z,62.91
2023-05-14T14:33:47.227Z,62.85
2023-05-14T14:38:40.100Z,62.93
2023-05-14T14:43:34.319Z,63.05
2023-05-14T14:48:35.372Z,63.42
2023-05-14T14:53:28.944Z,63.47
2023-05-14T14:58:21.635Z,62.96
2023-05-14T15:03:16.636Z,63.04
2023-05-14T15:08:09.751Z,62.99
2023-05-14T15:13:03.899Z,63.42
2023-05-14T15:17:57.308Z,63.17
2023-05-14T15:22:55.412Z,63.62
2023-05-14T15:27:48.508Z,62.96
2023-05-14T15:32:42.407Z,62.97
2023-05-14T15:37:44.305Z,62.86
2023-05-14T15:42:38.031Z,62.07
2023-05-14T15:47:31.971Z,63.11
2023-05-14T15:52:24.978Z,62.25
2023-05-14T15:57:19.744Z,62.53
2023-05-14T16:02:13.204Z,62.64
2023-05-14T16:07:11.418Z,63.00
2023-05-14T16:12:04.808Z,62.77
2023-05-14T16:16:58.211Z,62.68
2023-05-14T16:21:51.275Z,62.10
2023-05-14T16:26:44.148Z,62.28
2023-05-14T16:31:37.072Z,62.18
2023-05-14T16:36:30.127Z,61.86
2023-05-14T16:41:23.257Z,61.87
2023-05-14T16:46:17.860Z,62.19
2023-05-14T16:51:11.322Z,62.06
2023-05-14T16:56:04.481Z,62.01
2023-05-14T17:00:57.579Z,61.77
2023-05-14T17:05:50.113Z,62.10
2023-05-14T17:10:44.101Z,61.30
2023-05-14T17:15:38.235Z,61.48
2023-05-14T17:20:31.531Z,61.07
2023-05-14T17:25:27.700Z,61.21
2023-05-14T17:30:20.687Z,60.89
2023-05-14T17:35:14.322Z,60.81
2023-05-14T17:40:09.331Z,61.02
2023-05-14T17:45:02.893Z,60.67
2023-05-14T17:49:56.633Z,60.03
2023-05-14T17:54:50.105Z,60.61
2023-05-14T17:59:43.027Z,60.88
2023-05-14T18:04:36.449Z,60.91
2023-05-14T18:09:29.186Z,60.82
2023-05-14T18:14:22.632Z,60.95
2023-05-14T18:19:16.431Z,61.25
2023-05-14T18:24:11.050Z,60.97
2023-05-14T18:29:03.527Z,60.69
2023-05-14T18:33:56.573Z,60.83
2023-05-14T18:38:49.694Z,60.81
2023-05-14T18:43:43.222Z,60.95
2023-05-14T18:48:36.752Z,61.05
2023-05-14T18:53:30.002Z,60.78
2023-05-14T18:58:23.092Z,61.59
2023-05-14T19:03:16.382Z,60.92
2023-05-14T19:08:09.877Z,61.70
2023-05-14T19:13:04.998Z,63.87
2023-05-14T19:17:57.913Z,63.40
2023-05-14T19:22:52.721Z,62.67
2023-05-14T19:27:48.186Z,63.46
2023-05-14T19:32:41.326Z,63.30
2023-05-14T19:37:34.913Z,62.46
2023-05-14T19:42:29.313Z,63.61
2023-05-14T19:47:22.019Z,63.40
2023-05-14T19:52:14.232Z,63.56
2023-05-14T19:57:06.738Z,64.01
2023-05-14T20:01:59.403Z,63.86
2023-05-14T20:06:53.128Z,63.80
2023-05-14T20:11:47.156Z,64.13
2023-05-14T20:16:40.250Z,63.94
2023-05-14T20:21:33.495Z,64.04
2023-05-14T20:26:29.302Z,63.96
2023-05-14T20:31:22.403Z,64.53
2023-05-14T20:36:15.617Z,64.57
2023-05-14T20:41:08.831Z,64.55
2023-05-14T20:46:02.732Z,64.87
2023-05-14T20:50:56.032Z,65.49
2023-05-14T20:55:49.320Z,65.29
2023-05-14T21:00:42.420Z,64.97
2023-05-14T21:05:35.598Z,64.66
2023-05-14T21:10:28.994Z,64.91
2023-05-14T21:15:23.018Z,65.17
2023-05-14T21:20:16.932Z,65.14
2023-05-14T21:25:11.667Z,65.29
2023-05-14T21:30:06.278Z,65.21
2023-05-14T21:34:59.294Z,63.80
2023-05-14T21:39:52.683Z,63.94
2023-05-14T21:44:46.213Z,64.22
2023-05-14T21:49:38.772Z,64.35
2023-05-14T21:54:31.276Z,63.91
2023-05-14T21:59:25.926Z,64.42
2023-05-14T22:04:19.274Z,64.74
2023-05-14T22:09:13.705Z,65.35
2023-05-14T22:14:06.754Z,64.47
2023-05-14T22:19:00.000Z,64.74
2023-05-14T22:23:53.646Z,65.00
2023-05-14T22:28:46.333Z,65.22
2023-05-14T22:33:39.815Z,65.52
2023-05-14T22:38:38.370Z,64.76
2023-05-14T22:43:31.760Z,65.07
2023-05-14T22:48:25.627Z,64.89
2023-05-14T22:53:18.569Z,65.20
2023-05-14T22:58:10.869Z,64.80
2023-05-14T23:03:03.052Z,65.49
2023-05-14T23:07:56.052Z,65.05
2023-05-14T23:12:50.061Z,65.07
2023-05-14T23:17:42.392Z,64.82
2023-05-14T23:22:35.359Z,64.99
2023-05-14T23:27:29.586Z,65.89
2023-05-14T23:32:22.872Z,65.82
2023-05-14T23:37:16.711Z,65.98
2023-05-14T23:42:09.840Z,65.67
2023-05-14T23:47:03.323Z,65.87
2023-05-14T23:51:57.475Z,65.70
2023-05-14T23:56:50.715Z,65.83
